Time;durP1;ratioP1;P1;durP2;ratioP2;P2;SDS_P1;SDS_P2;PMS_P1;PMS_P2;Temp;Humidity;BMP_temperature;BMP_pressure;BME280_temperature;BME280_humidity;BME280_pressure;Samples;Min_cycle;Max_cycle;Signal;HPM_P1;HPM_P2
2022/01/05 00:01:08;;;;;;;17.85;2.92;;;3.20;99.90;;;;;;5008289;28;20179;-55
2022/01/05 00:03:35;;;;;;;11.25;2.05;;;3.20;99.90;;;;;;5021660;28;20046;-58
2022/01/05 00:06:01;;;;;;;15.43;2.65;;;3.20;99.90;;;;;;4996577;28;20080;-54
2022/01/05 00:08:27;;;;;;;9.13;1.50;;;3.20;99.90;;;;;;5003642;28;20087;-55
2022/01/05 00:10:53;;;;;;;14.43;2.17;;;3.20;99.90;;;;;;5010704;28;20041;-56
2022/01/05 00:13:19;;;;;;;11.93;1.52;;;3.30;99.90;;;;;;4989886;28;20049;-57
2022/01/05 00:15:45;;;;;;;15.65;3.25;;;3.30;99.90;;;;;;5021227;28;20091;-55
2022/01/05 00:18:10;;;;;;;9.20;2.03;;;3.40;99.90;;;;;;4996476;28;20053;-56
2022/01/05 00:20:36;;;;;;;11.68;2.42;;;3.40;99.90;;;;;;5003613;28;20136;-58
2022/01/05 00:23:02;;;;;;;18.77;2.13;;;3.40;99.90;;;;;;5011111;28;20041;-55
2022/01/05 00:25:28;;;;;;;16.05;3.35;;;3.50;99.90;;;;;;5025381;28;20454;-55
2022/01/05 00:27:54;;;;;;;16.50;2.42;;;3.50;99.90;;;;;;5013024;28;20057;-57
2022/01/05 00:30:20;;;;;;;18.80;2.60;;;3.50;99.90;;;;;;5002114;28;20685;-56
2022/01/05 00:32:45;;;;;;;13.35;2.78;;;3.60;99.90;;;;;;4989433;28;20506;-53
2022/01/05 00:35:11;;;;;;;13.77;3.17;;;3.60;99.90;;;;;;5011858;28;20125;-54
2022/01/05 00:37:37;;;;;;;17.58;2.90;;;3.60;99.90;;;;;;5004523;28;20134;-56
2022/01/05 00:40:04;;;;;;;15.95;2.85;;;3.60;99.90;;;;;;5008051;28;20041;-54
2022/01/05 00:42:30;;;;;;;13.13;2.45;;;3.60;99.90;;;;;;4976204;28;20092;-56
2022/01/05 00:44:56;;;;;;;15.60;2.50;;;3.60;99.90;;;;;;5029294;28;20543;-52
2022/01/05 00:47:21;;;;;;;18.08;2.70;;;3.70;99.90;;;;;;5034262;28;20124;-55
2022/01/05 00:49:47;;;;;;;18.05;3.45;;;3.70;99.90;;;;;;5015973;28;20156;-57
2022/01/05 00:52:13;;;;;;;13.82;2.63;;;3.70;99.90;;;;;;5015263;28;20081;-53
2022/01/05 00:54:40;;;;;;;17.23;4.57;;;3.60;99.90;;;;;;4998550;28;20310;-54
2022/01/05 00:57:06;;;;;;;16.60;3.03;;;3.60;99.90;;;;;;5015673;28;20042;-55
2022/01/05 00:59:32;;;;;;;19.80;2.90;;;3.60;99.90;;;;;;4995300;28;20080;-56
2022/01/05 01:01:58;;;;;;;14.60;3.22;;;3.70;99.90;;;;;;4996809;28;20507;-55
2022/01/05 01:04:24;;;;;;;14.93;2.47;;;3.70;99.90;;;;;;5020628;28;20148;-53
2022/01/05 01:06:50;;;;;;;14.73;3.00;;;3.70;99.90;;;;;;4996932;28;20161;-54
2022/01/05 01:09:15;;;;;;;15.80;2.30;;;3.70;99.90;;;;;;5016189;28;20073;-55
2022/01/05 01:11:41;;;;;;;13.32;2.60;;;3.70;99.90;;;;;;5019688;28;20117;-56
2022/01/05 01:14:07;;;;;;;12.48;2.50;;;3.70;99.90;;;;;;5027032;28;20534;-56
2022/01/05 01:16:33;;;;;;;12.88;2.67;;;3.70;99.90;;;;;;5002425;28;20064;-55
2022/01/05 01:18:59;;;;;;;14.90;2.30;;;3.70;99.90;;;;;;5028545;28;20500;-57
2022/01/05 01:21:25;;;;;;;12.30;3.20;;;3.70;99.90;;;;;;5013846;28;20046;-52
2022/01/05 01:23:56;;;;;;;13.70;2.55;;;3.70;99.90;;;;;;5035566;22;20046;-56
2022/01/05 01:26:25;;;;;;;13.45;2.40;;;3.70;99.90;;;;;;4972979;28;20675;-58
2022/01/05 01:28:51;;;;;;;11.13;2.08;;;3.70;99.90;;;;;;5010305;23;20438;-57
2022/01/05 01:31:17;;;;;;;18.85;3.83;;;3.70;99.90;;;;;;5025720;28;20049;-52
2022/01/05 01:33:43;;;;;;;14.43;2.58;;;3.70;99.90;;;;;;5029849;28;20387;-54
2022/01/05 01:36:09;;;;;;;21.00;4.15;;;3.70;99.90;;;;;;5024732;28;20033;-55
2022/01/05 01:38:35;;;;;;;16.83;2.58;;;3.70;99.90;;;;;;5027119;28;20099;-56
2022/01/05 01:41:01;;;;;;;15.60;2.85;;;3.70;99.90;;;;;;5028401;28;20048;-56
2022/01/05 01:43:27;;;;;;;18.23;3.72;;;3.60;99.90;;;;;;5034266;28;20033;-54
2022/01/05 01:45:52;;;;;;;13.05;2.92;;;3.70;99.90;;;;;;5034518;28;20064;-55
2022/01/05 01:48:18;;;;;;;13.75;2.53;;;3.60;99.90;;;;;;5028540;28;20045;-56
2022/01/05 01:50:44;;;;;;;19.25;3.70;;;3.60;99.90;;;;;;5022094;28;20040;-57
2022/01/05 01:53:10;;;;;;;12.27;4.00;;;3.60;99.90;;;;;;5019870;28;20491;-56
2022/01/05 01:55:35;;;;;;;17.40;3.30;;;3.60;99.90;;;;;;5030703;28;20415;-55
2022/01/05 01:58:01;;;;;;;17.45;2.60;;;3.60;99.90;;;;;;5015799;28;21783;-55
2022/01/05 02:00:29;;;;;;;15.02;2.58;;;3.50;99.90;;;;;;5009121;28;20049;-56
2022/01/05 02:02:55;;;;;;;17.42;4.72;;;3.60;99.90;;;;;;5037858;28;20045;-56
2022/01/05 02:05:21;;;;;;;22.63;2.97;;;3.60;99.90;;;;;;5030869;28;20518;-56
2022/01/05 02:07:47;;;;;;;20.25;4.00;;;3.70;99.90;;;;;;5032175;28;20041;-56
2022/01/05 02:10:14;;;;;;;14.38;2.45;;;3.70;99.90;;;;;;5017785;28;20060;-57
2022/01/05 02:12:40;;;;;;;21.33;3.05;;;3.70;99.90;;;;;;5030877;28;20072;-55
2022/01/05 02:15:06;;;;;;;18.38;3.20;;;3.70;99.90;;;;;;5017220;28;20080;-56
2022/01/05 02:17:48;;;;;;;22.20;5.57;;;3.80;99.90;;;;;;5010646;28;20041;-57
2022/01/05 02:20:17;;;;;;;15.98;3.08;;;3.80;99.90;;;;;;5030613;28;20052;-55
2022/01/05 02:22:43;;;;;;;11.27;2.45;;;4.10;99.90;;;;;;5004814;28;20048;-57
2022/01/05 02:25:08;;;;;;;18.70;3.08;;;3.80;99.90;;;;;;5009419;28;20041;-55
2022/01/05 02:27:37;;;;;;;18.17;3.60;;;3.90;99.90;;;;;;5012697;28;20178;-57
2022/01/05 02:30:03;;;;;;;21.15;3.47;;;3.90;99.90;;;;;;5028644;28;20037;-56
2022/01/05 02:32:28;;;;;;;13.98;2.60;;;3.90;99.90;;;;;;5008335;28;20041;-57
2022/01/05 02:34:54;;;;;;;10.15;2.40;;;3.90;99.90;;;;;;5029997;28;20057;-56
2022/01/05 02:37:20;;;;;;;14.80;3.72;;;3.90;99.90;;;;;;5025839;28;20407;-57
2022/01/05 02:39:45;;;;;;;12.07;2.03;;;3.90;99.90;;;;;;5019318;28;20059;-55
2022/01/05 02:42:11;;;;;;;18.45;3.95;;;3.90;99.90;;;;;;5028738;28;20047;-57
2022/01/05 02:44:44;;;;;;;10.00;2.50;;;3.90;99.90;;;;;;5001266;28;20029;-56
2022/01/05 02:47:09;;;;;;;15.82;3.05;;;4.00;99.90;;;;;;5032887;28;20037;-55
2022/01/05 02:49:35;;;;;;;20.00;3.55;;;4.00;99.90;;;;;;5031737;28;20053;-57
2022/01/05 02:52:01;;;;;;;17.48;2.70;;;4.10;99.90;;;;;;4995552;28;20124;-58
2022/01/05 02:54:26;;;;;;;8.52;2.67;;;4.20;99.90;;;;;;5029962;28;20060;-56
2022/01/05 02:56:53;;;;;;;16.50;2.13;;;4.20;99.90;;;;;;5039714;28;20629;-56
2022/01/05 02:59:19;;;;;;;11.63;2.08;;;4.30;99.90;;;;;;5020476;28;20109;-57
2022/01/05 03:01:44;;;;;;;16.10;2.60;;;4.30;99.90;;;;;;5045903;28;20694;-56
2022/01/05 03:04:10;;;;;;;15.88;2.38;;;4.30;99.90;;;;;;5046485;28;20172;-56
2022/01/05 03:06:36;;;;;;;11.75;2.15;;;4.40;99.90;;;;;;5039560;28;20040;-57
2022/01/05 03:09:02;;;;;;;16.20;2.90;;;4.40;99.90;;;;;;5038487;28;20041;-58
2022/01/05 03:11:27;;;;;;;11.27;2.45;;;4.40;99.90;;;;;;5006663;28;20029;-53
2022/01/05 03:13:53;;;;;;;15.93;2.53;;;4.40;99.90;;;;;;5031747;28;20099;-55
2022/01/05 03:16:19;;;;;;;10.15;2.60;;;4.40;99.90;;;;;;4998722;28;20125;-57
2022/01/05 03:18:44;;;;;;;19.65;2.80;;;4.40;99.90;;;;;;5033048;28;20081;-55
2022/01/05 03:21:10;;;;;;;19.98;3.10;;;4.50;99.90;;;;;;5034390;28;20061;-58
2022/01/05 03:23:36;;;;;;;20.52;3.83;;;4.50;99.90;;;;;;5026548;28;20752;-58
2022/01/05 03:26:01;;;;;;;12.73;2.55;;;4.50;99.90;;;;;;5033618;28;20033;-57
2022/01/05 03:28:27;;;;;;;14.35;3.00;;;4.50;99.90;;;;;;5000866;28;20056;-56
2022/01/05 03:30:53;;;;;;;13.73;2.33;;;4.50;99.90;;;;;;5031722;28;20036;-57
2022/01/05 03:33:22;;;;;;;10.85;1.95;;;4.50;99.90;;;;;;5033155;28;20044;-56
2022/01/05 03:35:48;;;;;;;11.52;1.70;;;4.50;99.90;;;;;;5029967;28;20380;-54
2022/01/05 03:38:17;;;;;;;6.88;1.67;;;4.40;99.90;;;;;;5022498;28;20374;-58
2022/01/05 03:40:44;;;;;;;8.10;1.40;;;4.40;99.90;;;;;;4996918;28;20132;-55
2022/01/05 03:43:11;;;;;;;8.82;2.05;;;4.40;99.90;;;;;;5031892;28;20037;-56
2022/01/05 03:45:38;;;;;;;4.85;1.13;;;4.30;99.90;;;;;;5030805;28;20479;-56
2022/01/05 03:48:09;;;;;;;11.23;1.55;;;4.30;99.90;;;;;;5032130;28;20079;-54
2022/01/05 03:50:36;;;;;;;10.70;2.25;;;4.20;99.90;;;;;;5017037;28;20077;-56
2022/01/05 03:53:04;;;;;;;9.88;1.95;;;4.20;99.90;;;;;;5031065;28;20044;-55
2022/01/05 03:55:30;;;;;;;11.30;2.67;;;4.20;99.90;;;;;;5027584;28;20041;-54
2022/01/05 03:57:56;;;;;;;9.85;1.63;;;4.20;99.90;;;;;;5019327;28;20045;-57
2022/01/05 04:00:24;;;;;;;8.90;1.60;;;4.20;99.90;;;;;;5025876;28;20059;-56
2022/01/05 04:02:50;;;;;;;13.68;2.40;;;4.10;99.90;;;;;;5026706;28;20038;-58
2022/01/05 04:05:16;;;;;;;13.73;2.63;;;4.10;99.90;;;;;;5015116;28;20047;-57
2022/01/05 04:07:41;;;;;;;9.95;1.77;;;4.10;99.90;;;;;;5032944;28;20068;-57
2022/01/05 04:10:07;;;;;;;19.33;2.72;;;4.10;99.90;;;;;;4990992;28;20380;-57
2022/01/05 04:12:33;;;;;;;9.32;1.83;;;4.10;99.90;;;;;;5002407;28;20055;-57
2022/01/05 04:14:59;;;;;;;9.23;2.17;;;4.10;99.90;;;;;;5013051;28;20075;-57
2022/01/05 04:17:25;;;;;;;8.63;1.80;;;4.10;99.90;;;;;;5015717;28;20550;-56
2022/01/05 04:19:50;;;;;;;7.72;1.63;;;4.10;99.90;;;;;;5025148;28;20065;-57
2022/01/05 04:22:16;;;;;;;6.63;1.83;;;4.10;99.90;;;;;;5026267;28;20029;-55
2022/01/05 04:24:42;;;;;;;11.88;3.03;;;4.10;99.90;;;;;;5015024;28;20041;-56
2022/01/05 04:27:08;;;;;;;11.93;2.35;;;4.20;99.90;;;;;;5028399;28;20045;-56
2022/01/05 04:29:33;;;;;;;19.52;3.22;;;4.20;99.90;;;;;;5024933;28;20498;-55
2022/01/05 04:32:00;;;;;;;16.50;3.03;;;4.20;99.90;;;;;;5006686;28;20095;-56
2022/01/05 04:34:26;;;;;;;14.95;3.30;;;4.20;99.90;;;;;;5007945;28;20036;-55
2022/01/05 04:36:52;;;;;;;14.15;2.75;;;4.30;99.90;;;;;;5022658;28;20038;-57
2022/01/05 04:39:18;;;;;;;14.02;2.75;;;4.20;99.90;;;;;;5023226;28;20056;-54
2022/01/05 04:41:44;;;;;;;17.70;3.42;;;4.20;99.90;;;;;;5026111;28;20547;-55
2022/01/05 04:44:09;;;;;;;13.82;2.75;;;4.20;99.90;;;;;;5022628;28;20083;-57
2022/01/05 04:46:35;;;;;;;14.60;3.00;;;4.20;99.90;;;;;;5025322;28;20650;-57
2022/01/05 04:49:01;;;;;;;18.58;3.70;;;4.20;99.90;;;;;;5029613;28;20044;-57
2022/01/05 04:51:27;;;;;;;17.02;3.33;;;4.30;99.90;;;;;;5006211;28;20083;-56
2022/01/05 04:53:52;;;;;;;18.88;2.97;;;4.30;99.90;;;;;;5028873;28;20029;-58
2022/01/05 04:56:18;;;;;;;11.93;2.60;;;4.40;99.90;;;;;;5023893;28;20037;-58
2022/01/05 04:58:44;;;;;;;15.52;2.72;;;4.40;99.90;;;;;;5028348;28;20143;-57
2022/01/05 05:01:10;;;;;;;15.25;2.97;;;4.40;99.90;;;;;;5021598;28;20044;-58
2022/01/05 05:03:35;;;;;;;19.13;3.10;;;4.50;99.90;;;;;;5023216;28;20033;-56
2022/01/05 05:06:01;;;;;;;15.73;3.05;;;4.50;99.90;;;;;;5004443;28;20147;-57
2022/01/05 05:08:27;;;;;;;16.23;3.88;;;4.60;99.90;;;;;;5019554;28;20127;-55
2022/01/05 05:10:53;;;;;;;24.90;3.22;;;4.50;99.90;;;;;;5013357;28;20038;-56
2022/01/05 05:13:18;;;;;;;19.77;4.13;;;4.50;99.90;;;;;;5031166;28;20033;-56
2022/01/05 05:15:44;;;;;;;21.52;3.45;;;4.50;99.90;;;;;;5017864;28;20060;-55
2022/01/05 05:18:10;;;;;;;17.75;4.10;;;4.60;99.90;;;;;;5013685;28;20142;-56
2022/01/05 05:20:35;;;;;;;17.88;3.22;;;4.60;99.90;;;;;;5028312;28;20068;-58
2022/01/05 05:23:02;;;;;;;20.20;3.80;;;4.60;99.90;;;;;;5029847;28;20043;-56
2022/01/05 05:25:28;;;;;;;19.30;4.18;;;4.60;99.90;;;;;;5029854;28;20411;-55
2022/01/05 05:27:53;;;;;;;16.67;2.85;;;4.60;99.90;;;;;;5025164;28;20045;-56
2022/01/05 05:30:19;;;;;;;21.60;3.90;;;4.60;99.90;;;;;;5028396;28;20032;-55
2022/01/05 05:32:45;;;;;;;27.67;3.95;;;4.70;99.90;;;;;;5004130;28;20051;-57
2022/01/05 05:35:11;;;;;;;18.75;3.10;;;4.70;99.90;;;;;;5030192;28;20091;-57
2022/01/05 05:37:37;;;;;;;15.85;3.78;;;4.70;99.90;;;;;;5030832;28;20045;-58
2022/01/05 05:40:04;;;;;;;24.67;4.10;;;4.70;99.90;;;;;;5034469;28;20049;-57
2022/01/05 05:42:29;;;;;;;21.50;4.35;;;4.70;99.90;;;;;;5012488;28;20443;-57
2022/01/05 05:44:55;;;;;;;24.15;3.95;;;4.70;99.90;;;;;;5015727;28;20049;-57
2022/01/05 05:47:21;;;;;;;16.15;3.08;;;4.70;99.90;;;;;;5032478;28;20545;-57
2022/01/05 05:49:48;;;;;;;16.15;2.53;;;4.70;99.90;;;;;;5008393;28;20573;-57
2022/01/05 05:52:14;;;;;;;19.52;3.47;;;4.70;99.90;;;;;;5030883;28;20098;-58
2022/01/05 05:54:40;;;;;;;24.67;4.05;;;4.70;99.90;;;;;;5028619;28;20041;-56
2022/01/05 05:57:09;;;;;;;29.58;4.43;;;4.80;99.90;;;;;;5029013;28;20075;-57
2022/01/05 05:59:35;;;;;;;21.25;4.15;;;4.80;99.90;;;;;;5029639;28;20062;-56
2022/01/05 06:02:01;;;;;;;19.27;3.15;;;4.80;99.90;;;;;;5018571;28;20037;-55
2022/01/05 06:04:27;;;;;;;16.33;3.83;;;4.80;99.90;;;;;;5033775;28;20037;-55
2022/01/05 06:06:52;;;;;;;21.20;3.15;;;4.90;99.90;;;;;;5030609;28;20557;-57
2022/01/05 06:09:18;;;;;;;17.27;3.55;;;4.90;99.90;;;;;;5030439;28;20033;-56
2022/01/05 06:11:44;;;;;;;17.50;2.78;;;5.00;99.90;;;;;;5028462;28;20083;-56
2022/01/05 06:14:10;;;;;;;12.18;2.95;;;5.00;99.90;;;;;;5010025;28;20110;-57
2022/01/05 06:16:36;;;;;;;13.43;2.45;;;5.00;99.90;;;;;;5036060;28;20109;-58
2022/01/05 06:19:02;;;;;;;16.92;2.47;;;5.00;99.90;;;;;;5031225;28;20045;-58
2022/01/05 06:21:27;;;;;;;14.52;2.63;;;4.90;99.90;;;;;;5017039;28;20039;-56
2022/01/05 06:23:53;;;;;;;15.18;2.20;;;5.00;99.90;;;;;;5026373;28;20542;-57
2022/01/05 06:26:20;;;;;;;13.93;2.40;;;4.90;99.90;;;;;;5010073;28;20061;-57
2022/01/05 06:28:46;;;;;;;14.85;2.33;;;4.90;99.90;;;;;;5014842;28;20043;-58
2022/01/05 06:31:12;;;;;;;17.55;2.78;;;4.80;99.90;;;;;;5006449;28;20758;-56
2022/01/05 06:33:37;;;;;;;15.68;2.60;;;4.80;99.90;;;;;;5033118;28;20037;-56
2022/01/05 06:36:03;;;;;;;9.07;2.15;;;4.80;99.90;;;;;;5019139;28;20155;-58
2022/01/05 06:38:29;;;;;;;15.55;2.95;;;4.70;99.90;;;;;;5041111;28;20039;-58
2022/01/05 06:40:55;;;;;;;14.98;2.15;;;4.70;99.90;;;;;;5046614;28;20402;-55
2022/01/05 06:43:21;;;;;;;7.82;2.25;;;4.70;99.90;;;;;;5020538;28;20682;-57
2022/01/05 06:45:46;;;;;;;16.98;2.45;;;4.70;99.90;;;;;;5026897;28;20152;-56
2022/01/05 06:48:12;;;;;;;13.88;3.67;;;4.70;99.90;;;;;;5012997;28;20407;-58
2022/01/05 06:50:38;;;;;;;16.65;2.92;;;4.70;99.90;;;;;;5022811;28;20034;-58
2022/01/05 06:53:04;;;;;;;18.02;3.17;;;4.70;99.90;;;;;;5023963;28;20099;-58
2022/01/05 06:55:30;;;;;;;13.98;2.55;;;4.80;99.90;;;;;;5002234;28;20048;-58
2022/01/05 06:57:55;;;;;;;11.80;2.38;;;4.90;99.90;;;;;;5023774;28;20029;-57
2022/01/05 07:00:23;;;;;;;17.88;2.80;;;4.90;99.90;;;;;;5021543;28;20488;-58
2022/01/05 07:02:49;;;;;;;15.45;3.03;;;5.00;99.90;;;;;;5022728;28;20045;-56
2022/01/05 07:05:15;;;;;;;20.48;3.08;;;5.10;99.90;;;;;;5026803;28;20138;-58
2022/01/05 07:07:41;;;;;;;14.63;2.63;;;5.00;99.90;;;;;;5025321;28;20037;-57
2022/01/05 07:10:09;;;;;;;14.57;2.08;;;5.10;99.90;;;;;;5029948;28;20128;-58
2022/01/05 07:12:36;;;;;;;11.65;2.83;;;5.20;99.90;;;;;;5019515;28;20030;-58
2022/01/05 07:15:03;;;;;;;14.80;2.90;;;5.30;99.90;;;;;;5020822;28;20045;-56
2022/01/05 07:17:29;;;;;;;13.85;1.92;;;5.40;99.90;;;;;;5018775;28;20124;-55
2022/01/05 07:19:55;;;;;;;16.27;2.20;;;5.30;99.90;;;;;;5018149;28;20039;-56
2022/01/05 07:22:21;;;;;;;25.35;4.40;;;5.40;99.90;;;;;;5028598;28;20083;-57
2022/01/05 07:24:46;;;;;;;13.82;1.98;;;5.40;99.90;;;;;;5029669;28;20033;-58
2022/01/05 07:27:12;;;;;;;15.00;2.35;;;5.40;99.90;;;;;;5039693;28;20042;-58
2022/01/05 07:29:38;;;;;;;16.20;2.05;;;5.50;99.90;;;;;;5022848;28;20083;-58
2022/01/05 07:32:04;;;;;;;16.77;3.10;;;5.50;99.90;;;;;;5016695;22;20045;-58
2022/01/05 07:34:30;;;;;;;17.52;2.60;;;5.50;99.90;;;;;;5006061;28;20061;-57
2022/01/05 07:36:56;;;;;;;13.45;2.40;;;5.50;99.90;;;;;;4997576;28;20672;-57
2022/01/05 07:39:21;;;;;;;11.68;2.55;;;5.50;99.90;;;;;;5010034;28;20037;-57
2022/01/05 07:41:47;;;;;;;9.48;2.13;;;5.50;99.90;;;;;;4993928;28;20041;-58
2022/01/05 07:44:13;;;;;;;5.28;0.88;;;5.50;99.90;;;;;;5003311;28;20049;-58
2022/01/05 07:46:39;;;;;;;4.57;0.85;;;5.40;99.90;;;;;;5015889;28;20245;-57
2022/01/05 07:49:05;;;;;;;7.75;1.90;;;5.30;99.90;;;;;;4976800;28;20048;-58
2022/01/05 07:51:31;;;;;;;11.65;1.27;;;5.30;99.90;;;;;;5011545;28;21249;-58
2022/01/05 07:53:57;;;;;;;9.18;1.85;;;5.30;99.90;;;;;;4987993;28;20451;-57
2022/01/05 07:56:23;;;;;;;16.38;2.75;;;5.40;99.90;;;;;;4997471;28;20041;-58
2022/01/05 07:58:50;;;;;;;9.73;2.03;;;5.50;99.90;;;;;;4987513;28;20060;-58
2022/01/05 08:01:18;;;;;;;12.55;2.65;;;5.60;99.90;;;;;;4992119;28;20273;-57
2022/01/05 08:03:45;;;;;;;15.85;3.17;;;5.60;99.90;;;;;;4999393;28;20061;-57
2022/01/05 08:06:11;;;;;;;18.80;3.55;;;5.70;99.90;;;;;;4980268;28;20103;-57
2022/01/05 08:08:37;;;;;;;21.33;4.10;;;5.80;99.90;;;;;;4997149;28;20041;-55
2022/01/05 08:11:02;;;;;;;17.58;3.28;;;5.90;99.90;;;;;;5010838;28;20041;-56
2022/01/05 08:13:28;;;;;;;26.00;2.83;;;5.90;99.90;;;;;;4981214;28;20037;-57
2022/01/05 08:15:54;;;;;;;17.10;2.78;;;6.00;99.90;;;;;;5016054;28;20084;-55
2022/01/05 08:18:21;;;;;;;9.93;2.42;;;5.90;99.90;;;;;;4994417;28;20308;-57
2022/01/05 08:20:47;;;;;;;6.32;1.40;;;5.90;99.90;;;;;;4998710;28;20050;-58
2022/01/05 08:23:18;;;;;;;11.50;2.00;;;5.90;99.90;;;;;;4991818;28;20116;-57
2022/01/05 08:25:44;;;;;;;7.13;1.65;;;5.80;99.90;;;;;;4993091;28;20128;-58
2022/01/05 08:28:11;;;;;;;12.15;1.77;;;5.80;99.90;;;;;;4979381;28;20059;-56
2022/01/05 08:30:38;;;;;;;12.45;2.05;;;5.80;99.90;;;;;;4994170;28;20077;-55
2022/01/05 08:33:04;;;;;;;12.60;2.30;;;5.80;99.90;;;;;;4974989;28;20144;-57
2022/01/05 08:35:31;;;;;;;7.80;2.05;;;5.80;99.90;;;;;;4992646;28;20057;-57
2022/01/05 08:37:57;;;;;;;15.88;2.35;;;5.90;99.90;;;;;;4991333;28;20045;-58
2022/01/05 08:40:25;;;;;;;16.33;2.42;;;5.90;99.90;;;;;;5004219;28;20114;-58
2022/01/05 08:42:55;;;;;;;18.10;2.88;;;6.00;99.90;;;;;;4990454;28;20057;-57
2022/01/05 08:45:21;;;;;;;18.80;2.92;;;6.00;99.90;;;;;;4995681;28;20431;-56
2022/01/05 08:47:50;;;;;;;18.98;3.70;;;6.20;99.90;;;;;;4992843;28;20049;-55
2022/01/05 08:50:18;;;;;;;14.45;2.90;;;6.30;99.90;;;;;;4995466;28;20103;-58
2022/01/05 08:52:45;;;;;;;15.88;3.58;;;6.30;99.90;;;;;;5009780;28;20153;-57
2022/01/05 08:55:11;;;;;;;15.80;3.05;;;6.30;99.90;;;;;;5020016;28;20547;-57
2022/01/05 08:57:37;;;;;;;17.45;3.40;;;6.30;99.90;;;;;;4996390;28;20052;-58
2022/01/05 09:00:05;;;;;;;16.42;2.70;;;6.30;99.90;;;;;;5010631;28;20044;-61
2022/01/05 09:02:30;;;;;;;14.07;2.70;;;6.30;99.90;;;;;;4995858;28;20053;-56
2022/01/05 09:04:56;;;;;;;20.05;3.58;;;6.30;99.90;;;;;;5000562;28;20376;-58
2022/01/05 09:07:22;;;;;;;23.40;3.40;;;6.30;99.90;;;;;;5005120;28;20081;-53
2022/01/05 09:09:48;;;;;;;24.05;5.40;;;6.20;99.90;;;;;;4978620;28;20133;-53
2022/01/05 09:12:13;;;;;;;27.13;6.10;;;6.30;99.90;;;;;;4987748;28;20607;-56
2022/01/05 09:14:40;;;;;;;25.88;4.47;;;6.30;99.90;;;;;;4997467;28;20217;-56
2022/01/05 09:17:07;;;;;;;18.67;4.63;;;6.30;99.90;;;;;;5018246;28;20045;-55
2022/01/05 09:19:33;;;;;;;28.77;4.97;;;6.30;99.90;;;;;;4994246;28;20492;-57
2022/01/05 09:22:00;;;;;;;34.25;5.00;;;6.40;99.90;;;;;;5012555;28;20043;-58
2022/01/05 09:24:26;;;;;;;33.55;5.53;;;6.50;99.90;;;;;;5001693;28;20319;-59
2022/01/05 09:26:52;;;;;;;30.77;6.15;;;6.60;99.90;;;;;;5002599;28;20064;-57
2022/01/05 09:29:18;;;;;;;26.10;5.63;;;6.60;99.90;;;;;;5016830;28;20243;-55
2022/01/05 09:31:45;;;;;;;24.73;5.10;;;6.60;99.90;;;;;;4982701;28;20045;-55
2022/01/05 09:34:11;;;;;;;28.83;6.95;;;6.70;99.90;;;;;;4995324;28;20038;-57
2022/01/05 09:36:45;;;;;;;26.77;5.88;;;6.70;99.90;;;;;;5001439;28;20037;-58
2022/01/05 09:42:05;;;;;;;25.45;5.95;;;6.70;99.90;;;;;;4998577;28;20147;-57
2022/01/05 09:44:41;;;;;;;38.63;6.82;;;6.80;99.90;;;;;;4996334;28;20053;-57
2022/01/05 09:47:22;;;;;;;28.63;6.15;;;6.80;99.90;;;;;;5019186;28;20037;-58
2022/01/05 09:49:54;;;;;;;22.45;5.53;;;6.80;99.90;;;;;;5013829;28;20404;-57
2022/01/05 09:52:23;;;;;;;27.73;4.93;;;6.80;99.90;;;;;;5015593;28;20553;-59
2022/01/05 09:54:49;;;;;;;28.23;4.53;;;6.90;99.90;;;;;;5006914;28;20124;-56
2022/01/05 09:57:16;;;;;;;19.48;3.28;;;6.90;99.90;;;;;;4983195;28;20476;-59
2022/01/05 09:59:43;;;;;;;25.20;3.78;;;6.80;99.90;;;;;;5012627;28;20055;-57
2022/01/05 10:02:09;;;;;;;17.17;3.13;;;6.90;99.90;;;;;;4999190;28;20423;-59
2022/01/05 10:04:36;;;;;;;16.27;2.90;;;6.80;99.90;;;;;;5008786;28;20107;-59
2022/01/05 10:07:03;;;;;;;25.83;3.47;;;6.70;99.90;;;;;;4996691;28;20048;-59
2022/01/05 10:09:29;;;;;;;19.73;3.97;;;6.60;99.90;;;;;;5009623;28;20156;-58
2022/01/05 10:11:55;;;;;;;29.95;5.55;;;6.50;99.90;;;;;;4998937;28;20399;-55
2022/01/05 10:14:21;;;;;;;22.55;3.75;;;6.50;99.90;;;;;;4997389;28;20037;-57
2022/01/05 10:17:07;;;;;;;24.48;5.38;;;6.60;99.90;;;;;;5004798;28;20045;-58
2022/01/05 10:19:34;;;;;;;24.70;3.97;;;6.60;99.90;;;;;;5000476;28;20037;-59
2022/01/05 10:22:00;;;;;;;20.25;3.95;;;6.70;99.90;;;;;;5010935;28;20571;-60
2022/01/05 10:24:48;;;;;;;26.00;5.22;;;6.70;99.90;;;;;;4994562;28;20041;-58
2022/01/05 10:27:21;;;;;;;21.70;3.58;;;6.90;99.90;;;;;;4996959;28;20045;-56
2022/01/05 10:30:19;;;;;;;22.27;3.65;;;7.10;99.90;;;;;;4999964;28;20097;-58
2022/01/05 10:32:45;;;;;;;22.98;4.63;;;7.20;99.90;;;;;;4959473;28;20052;-58
2022/01/05 10:35:17;;;;;;;23.48;4.97;;;7.20;99.90;;;;;;5015184;28;20046;-57
2022/01/05 10:37:45;;;;;;;23.60;5.05;;;7.20;99.90;;;;;;5006556;28;20116;-57
2022/01/05 10:40:11;;;;;;;23.77;5.47;;;7.30;99.90;;;;;;5007048;28;20045;-57
2022/01/05 10:42:38;;;;;;;19.90;5.10;;;7.40;99.90;;;;;;4997973;28;20416;-57
2022/01/05 10:45:06;;;;;;;16.48;2.85;;;7.40;99.90;;;;;;5014642;28;20033;-58
2022/01/05 10:47:36;;;;;;;12.73;3.05;;;7.40;99.90;;;;;;5018716;28;20049;-58
2022/01/05 10:50:04;;;;;;;14.68;3.03;;;7.40;99.90;;;;;;4997652;28;20108;-58
2022/01/05 10:52:34;;;;;;;18.38;3.10;;;7.40;99.90;;;;;;4995207;28;20057;-56
2022/01/05 10:55:12;;;;;;;10.30;2.55;;;7.50;99.90;;;;;;5006487;28;20040;-57
2022/01/05 10:57:53;;;;;;;15.65;3.42;;;7.60;99.90;;;;;;4996918;28;20094;-58
2022/01/05 11:00:34;;;;;;;12.65;3.58;;;7.60;99.90;;;;;;4986349;28;20665;-57
2022/01/05 11:03:01;;;;;;;20.40;3.22;;;7.70;99.90;;;;;;4993075;28;20508;-58
2022/01/05 11:05:27;;;;;;;22.00;3.75;;;7.70;99.90;;;;;;4988530;28;20533;-57
2022/01/05 11:08:06;;;;;;;17.50;3.88;;;7.80;99.90;;;;;;4987832;28;20131;-58
2022/01/05 11:10:32;;;;;;;14.25;3.63;;;7.80;99.90;;;;;;4994789;28;20123;-57
2022/01/05 11:12:58;;;;;;;20.52;5.03;;;7.90;99.90;;;;;;4989398;28;20178;-58
2022/01/05 11:15:32;;;;;;;15.95;3.80;;;7.90;99.90;;;;;;4997526;28;20112;-57
2022/01/05 11:18:04;;;;;;;20.88;4.13;;;7.80;99.90;;;;;;5012183;28;20052;-57
2022/01/05 11:20:30;;;;;;;18.42;3.83;;;7.70;99.90;;;;;;4988757;28;20068;-56
2022/01/05 11:22:56;;;;;;;15.32;4.50;;;7.60;99.90;;;;;;5009249;28;20037;-57
2022/01/05 11:25:22;;;;;;;14.77;2.65;;;7.40;99.90;;;;;;4975404;28;20132;-58
2022/01/05 11:27:48;;;;;;;10.90;2.47;;;7.30;99.90;;;;;;4997650;28;20241;-58
2022/01/05 11:30:14;;;;;;;15.02;4.82;;;7.30;99.90;;;;;;4990246;28;20038;-56
2022/01/05 11:32:40;;;;;;;16.33;3.58;;;7.20;99.90;;;;;;5008407;28;20142;-58
2022/01/05 11:35:09;;;;;;;16.02;3.00;;;7.10;99.90;;;;;;4998051;28;20079;-59
2022/01/05 11:37:35;;;;;;;14.40;2.90;;;7.20;99.90;;;;;;5011240;28;20169;-58
2022/01/05 11:40:05;;;;;;;13.57;3.88;;;7.30;99.90;;;;;;5013450;28;20547;-57
2022/01/05 11:42:40;;;;;;;18.60;3.38;;;7.30;99.90;;;;;;5000122;28;20327;-58
2022/01/05 11:45:08;;;;;;;21.75;4.32;;;7.40;99.90;;;;;;4992445;28;20041;-58
2022/01/05 11:47:39;;;;;;;18.10;3.58;;;7.50;99.90;;;;;;4997980;28;21712;-59
2022/01/05 11:50:14;;;;;;;23.67;3.50;;;7.60;99.90;;;;;;5016514;28;20290;-57
2022/01/05 11:52:59;;;;;;;24.92;4.65;;;7.70;99.90;;;;;;4991400;28;20054;-60
2022/01/05 11:55:27;;;;;;;20.40;3.17;;;7.90;99.90;;;;;;4984779;28;20057;-57
2022/01/05 11:58:19;;;;;;;21.27;3.92;;;7.90;99.90;;;;;;5005239;28;20041;-58
2022/01/05 12:00:47;;;;;;;25.70;4.85;;;8.00;99.90;;;;;;4991189;28;20609;-59
2022/01/05 12:03:33;;;;;;;27.10;6.13;;;8.10;99.90;;;;;;5006791;28;20049;-56
2022/01/05 12:06:05;;;;;;;17.52;3.92;;;8.10;99.90;;;;;;4997102;28;20050;-58
2022/01/05 12:08:45;;;;;;;27.92;4.88;;;8.10;99.90;;;;;;5015629;28;20134;-57
2022/01/05 12:11:42;;;;;;;24.58;4.38;;;8.00;99.90;;;;;;4996055;28;20263;-57
2022/01/05 12:14:27;;;;;;;24.75;5.22;;;8.00;99.90;;;;;;4999616;28;20441;-57
2022/01/05 12:17:02;;;;;;;26.77;4.95;;;7.80;99.90;;;;;;4998641;28;20060;-57
2022/01/05 12:19:32;;;;;;;26.92;6.38;;;7.60;99.90;;;;;;4977366;28;20049;-56
2022/01/05 12:22:00;;;;;;;27.08;4.75;;;7.50;99.90;;;;;;5016710;28;20676;-57
2022/01/05 12:24:54;;;;;;;22.70;3.70;;;7.40;99.90;;;;;;4997623;28;20053;-56
2022/01/05 12:27:23;;;;;;;33.00;3.75;;;7.40;99.90;;;;;;5022476;28;20084;-58
2022/01/05 12:29:49;;;;;;;24.95;4.18;;;7.40;99.90;;;;;;5013812;28;20061;-57
2022/01/05 12:32:34;;;;;;;25.50;3.20;;;7.40;99.90;;;;;;5001019;28;20041;-57
2022/01/05 12:35:07;;;;;;;17.73;3.53;;;7.40;99.90;;;;;;5001485;28;20884;-57
2022/01/05 12:37:45;;;;;;;21.55;4.30;;;7.40;99.90;;;;;;5013382;28;20862;-57
2022/01/05 12:40:32;;;;;;;23.27;3.30;;;7.30;99.90;;;;;;5007997;28;20509;-57
2022/01/05 12:43:13;;;;;;;21.65;3.88;;;7.40;99.90;;;;;;4991867;28;20041;-58
2022/01/05 12:45:45;;;;;;;27.05;5.20;;;7.40;99.90;;;;;;4994041;28;20056;-57
2022/01/05 12:48:32;;;;;;;32.67;8.45;;;7.40;99.90;;;;;;4997975;28;20060;-57
2022/01/05 12:51:22;;;;;;;28.00;5.30;;;7.40;99.90;;;;;;5010500;28;20052;-57
2022/01/05 12:54:03;;;;;;;22.33;4.60;;;7.40;99.90;;;;;;5017147;28;20046;-58